Time;durP1;ratioP1;P1;durP2;ratioP2;P2;SDS_P1;SDS_P2;PMS_P1;PMS_P2;Temp;Humidity;BMP_temperature;BMP_pressure;BME280_temperature;BME280_humidity;BME280_pressure;Samples;Min_cycle;Max_cycle;Signal;HPM_P1;HPM_P2
2022/09/19 00:01:29;;;;;;;1.27;1.10;;;23.60;67.60;;;;;;5096384;28;20458;-81
2022/09/19 00:03:58;;;;;;;1.00;0.83;;;23.60;67.60;;;;;;5096220;28;20514;-81
2022/09/19 00:06:27;;;;;;;1.00;0.80;;;23.70;67.70;;;;;;5096105;28;20436;-80
2022/09/19 00:08:55;;;;;;;1.10;1.00;;;23.60;67.60;;;;;;5096097;28;20517;-81
2022/09/19 00:11:22;;;;;;;1.00;0.90;;;23.60;67.60;;;;;;5096314;28;20527;-86
2022/09/19 00:13:52;;;;;;;1.10;1.00;;;23.60;67.50;;;;;;5096035;28;20442;-81
2022/09/19 00:16:21;;;;;;;1.00;0.80;;;23.60;67.50;;;;;;5095982;28;20432;-81
2022/09/19 00:18:49;;;;;;;0.93;0.73;;;23.60;67.60;;;;;;5095523;28;20467;-81
2022/09/19 00:21:20;;;;;;;1.03;0.93;;;23.60;67.60;;;;;;5095885;28;20929;-85
2022/09/19 00:26:32;;;;;;;1.00;0.80;;;23.60;67.60;;;;;;5095860;28;20423;-85
2022/09/19 00:29:01;;;;;;;1.10;0.90;;;23.60;67.60;;;;;;5095684;28;20543;-80
2022/09/19 00:31:27;;;;;;;1.17;1.00;;;23.60;67.60;;;;;;5095951;28;20535;-81
2022/09/19 00:33:55;;;;;;;0.80;0.70;;;23.60;67.60;;;;;;5096275;28;20518;-81
2022/09/19 00:36:23;;;;;;;0.87;0.80;;;23.60;67.60;;;;;;5095944;28;20453;-81
2022/09/19 00:38:50;;;;;;;1.10;1.00;;;23.60;67.60;;;;;;5095615;28;20763;-81
2022/09/19 00:41:19;;;;;;;0.93;0.87;;;23.60;67.50;;;;;;5095753;28;20976;-85
2022/09/19 00:43:50;;;;;;;1.00;0.90;;;23.60;67.60;;;;;;5095347;28;20515;-81
2022/09/19 00:46:19;;;;;;;1.00;0.90;;;23.60;67.50;;;;;;5095004;28;20818;-81
2022/09/19 00:48:51;;;;;;;0.90;0.80;;;23.60;67.60;;;;;;5095110;28;20451;-80
2022/09/19 00:51:31;;;;;;;1.00;0.90;;;23.60;67.60;;;;;;5095449;28;20435;-81
2022/09/19 00:54:03;;;;;;;0.90;0.73;;;23.60;67.60;;;;;;5095266;28;20506;-81
2022/09/19 00:56:32;;;;;;;1.00;0.90;;;23.60;67.60;;;;;;5095504;28;20779;-85
2022/09/19 00:59:01;;;;;;;1.00;0.80;;;23.60;67.50;;;;;;5094944;28;20547;-81
2022/09/19 01:01:30;;;;;;;0.90;0.70;;;23.60;67.50;;;;;;5095197;28;20440;-81
2022/09/19 01:03:57;;;;;;;1.10;1.00;;;23.60;67.50;;;;;;5095008;28;20545;-81
2022/09/19 01:06:46;;;;;;;1.00;0.90;;;23.60;67.50;;;;;;5095024;28;20527;-81
2022/09/19 01:09:35;;;;;;;1.20;0.87;;;23.60;67.40;;;;;;5094849;28;20528;-81
2022/09/19 01:12:31;;;;;;;1.07;0.80;;;23.60;67.40;;;;;;5095304;28;20436;-86
2022/09/19 01:15:19;;;;;;;0.80;0.70;;;23.60;67.50;;;;;;5086326;28;20531;-81
2022/09/19 01:17:49;;;;;;;1.00;0.80;;;23.60;67.60;;;;;;5094812;28;20447;-81
2022/09/19 01:21:37;;;;;;;1.40;0.90;;;23.60;67.60;;;;;;5094629;28;20472;-81
2022/09/19 01:24:08;;;;;;;1.00;0.73;;;23.60;67.50;;;;;;4995249;28;20548;-81
2022/09/19 01:26:58;;;;;;;1.00;0.87;;;23.60;67.70;;;;;;5094633;28;20931;-85
2022/09/19 01:29:30;;;;;;;0.90;0.80;;;23.60;67.60;;;;;;5095019;28;20484;-81
2022/09/19 01:32:00;;;;;;;0.90;0.70;;;23.60;67.60;;;;;;5094927;28;20435;-86
2022/09/19 01:34:33;;;;;;;1.43;0.90;;;23.60;67.60;;;;;;5094712;28;20450;-81
2022/09/19 01:37:06;;;;;;;0.80;0.70;;;23.50;67.50;;;;;;5094664;28;20432;-84
2022/09/19 01:39:36;;;;;;;1.07;0.70;;;23.60;67.60;;;;;;5094618;28;20468;-86
2022/09/19 01:42:04;;;;;;;1.20;1.10;;;23.50;67.50;;;;;;5094463;28;20436;-86
2022/09/19 01:44:32;;;;;;;1.07;0.70;;;23.60;67.60;;;;;;5094468;28;20486;-86
2022/09/19 01:47:13;;;;;;;1.40;0.83;;;23.60;67.50;;;;;;5094336;28;20440;-81
2022/09/19 01:49:47;;;;;;;1.00;0.90;;;23.60;67.50;;;;;;5094377;28;20511;-81
2022/09/19 01:52:22;;;;;;;0.93;0.80;;;23.60;67.60;;;;;;5094485;28;20439;-81
2022/09/19 01:54:58;;;;;;;0.90;0.80;;;23.60;67.50;;;;;;5094412;28;20439;-81
2022/09/19 01:57:36;;;;;;;0.80;0.70;;;23.60;67.50;;;;;;5094146;28;20467;-85
2022/09/19 02:00:11;;;;;;;1.57;1.30;;;23.60;67.40;;;;;;5094110;28;20864;-86
2022/09/19 02:02:44;;;;;;;1.00;0.90;;;23.60;67.50;;;;;;5094009;28;20448;-86
2022/09/19 02:05:15;;;;;;;0.80;0.70;;;23.60;67.50;;;;;;5093932;28;20526;-81
2022/09/19 02:07:50;;;;;;;1.00;0.90;;;23.60;67.40;;;;;;5094087;28;21059;-81
2022/09/19 02:10:22;;;;;;;1.37;0.90;;;23.60;67.50;;;;;;5093843;28;20435;-81
2022/09/19 02:12:53;;;;;;;0.80;0.70;;;23.60;68.40;;;;;;5093881;28;20450;-81
2022/09/19 02:15:25;;;;;;;1.00;0.90;;;23.60;67.50;;;;;;5093650;28;20440;-81
2022/09/19 02:17:56;;;;;;;0.90;0.80;;;23.60;68.30;;;;;;5093980;28;20436;-81
2022/09/19 02:20:27;;;;;;;0.83;0.70;;;23.60;67.50;;;;;;5093674;28;20470;-81
2022/09/19 02:22:58;;;;;;;0.80;0.70;;;23.50;67.40;;;;;;5093769;28;20862;-81
2022/09/19 02:25:32;;;;;;;1.00;0.90;;;23.60;67.50;;;;;;5093927;28;20488;-81
2022/09/19 02:28:03;;;;;;;1.00;0.90;;;23.50;67.40;;;;;;5093623;28;20462;-81
2022/09/19 02:30:32;;;;;;;1.00;0.77;;;23.60;67.50;;;;;;5093698;28;20436;-83
2022/09/19 02:32:59;;;;;;;0.90;0.80;;;23.50;67.40;;;;;;5093421;28;20432;-81
2022/09/19 02:35:38;;;;;;;0.90;0.70;;;23.50;67.30;;;;;;5093626;28;20443;-81
2022/09/19 02:38:13;;;;;;;1.10;0.87;;;23.50;67.40;;;;;;5093728;28;20497;-84
2022/09/19 02:40:49;;;;;;;0.83;0.70;;;23.60;67.80;;;;;;5093802;28;20454;-81
2022/09/19 02:43:22;;;;;;;0.80;0.70;;;23.50;67.40;;;;;;5093662;28;20530;-81
2022/09/19 02:45:53;;;;;;;0.80;0.70;;;23.50;67.40;;;;;;5093516;28;20567;-81
2022/09/19 02:48:26;;;;;;;0.90;0.73;;;23.60;67.50;;;;;;5093208;28;20439;-81
2022/09/19 02:50:59;;;;;;;0.90;0.80;;;23.50;67.40;;;;;;5093371;28;20534;-81
2022/09/19 02:53:29;;;;;;;0.87;0.70;;;23.50;67.40;;;;;;5093421;28;20436;-81
2022/09/19 02:56:00;;;;;;;0.90;0.73;;;23.50;67.40;;;;;;5093521;28;20969;-81
2022/09/19 02:58:31;;;;;;;1.00;0.80;;;23.60;67.40;;;;;;5093334;28;20844;-81
2022/09/19 03:01:03;;;;;;;1.00;0.90;;;23.60;67.40;;;;;;5093142;28;20447;-81
2022/09/19 03:06:23;;;;;;;1.10;0.80;;;23.50;67.40;;;;;;5093359;28;20576;-81
2022/09/19 03:08:52;;;;;;;0.90;0.80;;;23.50;67.40;;;;;;5093224;28;20466;-81
2022/09/19 03:11:22;;;;;;;1.20;0.87;;;23.50;67.40;;;;;;5096201;28;20530;-83
2022/09/19 03:13:49;;;;;;;0.80;0.70;;;23.50;67.40;;;;;;5097359;28;20526;-81
2022/09/19 03:16:19;;;;;;;0.90;0.80;;;23.50;67.40;;;;;;5096934;28;20522;-80
2022/09/19 03:18:47;;;;;;;1.03;0.90;;;23.50;67.40;;;;;;5102914;28;20465;-81
2022/09/19 03:21:21;;;;;;;0.80;0.60;;;23.50;67.40;;;;;;5117588;28;20434;-81
2022/09/19 03:23:49;;;;;;;0.90;0.80;;;23.50;67.30;;;;;;5117458;28;20439;-81
2022/09/19 03:26:20;;;;;;;0.90;0.80;;;23.50;67.40;;;;;;5117396;28;20790;-81
2022/09/19 03:28:47;;;;;;;0.93;0.80;;;23.50;67.40;;;;;;5117574;28;20936;-80
2022/09/19 03:31:15;;;;;;;0.77;0.70;;;23.50;67.30;;;;;;5117281;28;20457;-81
2022/09/19 03:33:43;;;;;;;0.80;0.67;;;23.50;67.30;;;;;;5116896;28;20475;-81
2022/09/19 03:36:10;;;;;;;0.90;0.80;;;23.50;67.30;;;;;;5116974;28;20533;-81
2022/09/19 03:38:40;;;;;;;1.10;1.00;;;23.50;67.30;;;;;;5116735;28;20522;-81
2022/09/19 03:41:07;;;;;;;0.90;0.70;;;23.50;67.30;;;;;;5117093;28;20435;-81
2022/09/19 03:43:34;;;;;;;0.97;0.80;;;23.50;67.40;;;;;;5117335;28;21004;-81
2022/09/19 03:46:01;;;;;;;0.90;0.70;;;23.50;67.30;;;;;;5116910;28;20482;-85
2022/09/19 03:48:27;;;;;;;0.90;0.80;;;23.50;67.30;;;;;;5116899;28;20538;-81
2022/09/19 03:50:55;;;;;;;0.97;0.80;;;23.50;67.30;;;;;;5116885;28;20435;-81
2022/09/19 03:53:22;;;;;;;0.90;0.70;;;23.50;67.30;;;;;;5116947;28;20530;-81
2022/09/19 03:55:50;;;;;;;1.20;1.00;;;23.50;67.30;;;;;;5116818;28;21040;-81
2022/09/19 03:58:17;;;;;;;0.80;0.70;;;23.50;67.30;;;;;;5116727;28;20490;-81
2022/09/19 04:00:44;;;;;;;0.90;0.70;;;23.50;67.30;;;;;;5116729;28;20442;-81
2022/09/19 04:03:11;;;;;;;1.17;0.90;;;23.50;67.30;;;;;;5116747;28;21321;-81
2022/09/19 04:05:38;;;;;;;0.80;0.70;;;23.50;67.30;;;;;;5116398;28;20493;-81
2022/09/19 04:08:07;;;;;;;0.90;0.80;;;23.50;67.30;;;;;;5116620;28;20439;-81
2022/09/19 04:10:34;;;;;;;1.00;0.80;;;23.50;67.30;;;;;;5116420;28;20447;-86
2022/09/19 04:13:01;;;;;;;1.10;1.00;;;23.50;67.40;;;;;;5116428;28;20435;-86
2022/09/19 04:15:28;;;;;;;1.00;0.70;;;23.50;67.40;;;;;;5116261;28;20542;-81
2022/09/19 04:17:55;;;;;;;0.80;0.70;;;23.50;67.40;;;;;;5116343;28;20517;-80
2022/09/19 04:20:29;;;;;;;0.83;0.70;;;23.50;67.30;;;;;;5116274;28;20565;-81
2022/09/19 04:22:59;;;;;;;0.90;0.70;;;23.50;67.30;;;;;;5114759;28;20439;-81
2022/09/19 04:25:28;;;;;;;0.80;0.70;;;23.50;67.30;;;;;;5116009;28;20514;-81
2022/09/19 04:27:56;;;;;;;0.90;0.70;;;23.50;67.30;;;;;;5115806;28;20825;-81
2022/09/19 04:30:23;;;;;;;0.90;0.80;;;23.50;67.30;;;;;;5116159;28;20530;-86
2022/09/19 04:32:51;;;;;;;0.90;0.70;;;23.50;67.30;;;;;;5116030;28;20434;-81
2022/09/19 04:35:18;;;;;;;0.87;0.70;;;23.50;67.30;;;;;;5116072;28;20466;-86
2022/09/19 04:37:45;;;;;;;0.80;0.70;;;23.50;67.40;;;;;;5115807;28;20442;-83
2022/09/19 04:40:12;;;;;;;0.90;0.70;;;23.50;67.40;;;;;;5116164;28;20452;-83
2022/09/19 04:42:41;;;;;;;0.90;0.80;;;23.50;67.40;;;;;;5116008;28;20441;-83
2022/09/19 04:45:09;;;;;;;3.60;1.50;;;23.50;67.40;;;;;;5115782;28;20475;-82
2022/09/19 04:47:37;;;;;;;1.30;1.20;;;23.40;66.30;;;;;;5115973;28;20428;-83
2022/09/19 04:50:10;;;;;;;1.40;0.80;;;23.40;66.70;;;;;;5115944;28;20538;-84
2022/09/19 04:52:39;;;;;;;1.07;0.87;;;23.40;67.10;;;;;;5115627;28;20921;-83
2022/09/19 04:55:07;;;;;;;0.90;0.70;;;23.40;67.30;;;;;;5116096;28;20451;-84
2022/09/19 04:57:34;;;;;;;1.20;1.07;;;23.40;67.40;;;;;;5115590;28;20466;-82
2022/09/19 05:00:03;;;;;;;0.80;0.70;;;23.40;67.30;;;;;;5115724;28;20439;-83
2022/09/19 05:02:31;;;;;;;0.80;0.70;;;23.40;67.30;;;;;;5115528;28;20427;-83
2022/09/19 05:04:59;;;;;;;1.50;1.13;;;23.40;67.30;;;;;;5115504;28;20984;-83
2022/09/19 05:07:33;;;;;;;1.20;0.80;;;23.40;67.30;;;;;;5115438;28;20446;-83
2022/09/19 05:10:01;;;;;;;0.97;0.70;;;23.50;67.40;;;;;;5115558;28;20434;-82
2022/09/19 05:12:28;;;;;;;0.90;0.80;;;23.40;67.30;;;;;;5115706;28;20435;-83
2022/09/19 05:14:55;;;;;;;1.00;0.73;;;23.40;67.30;;;;;;5115406;28;20453;-84
2022/09/19 05:17:24;;;;;;;1.20;0.90;;;23.50;67.40;;;;;;5115160;28;20529;-83
2022/09/19 05:19:51;;;;;;;1.03;0.90;;;23.40;67.30;;;;;;5115565;28;20467;-82
2022/09/19 05:22:17;;;;;;;0.90;0.73;;;23.50;67.40;;;;;;5115100;28;20443;-83
2022/09/19 05:24:44;;;;;;;1.30;1.10;;;23.40;67.30;;;;;;5115094;28;21318;-83
2022/09/19 05:27:12;;;;;;;2.63;0.90;;;23.40;67.30;;;;;;5114867;28;20489;-84
2022/09/19 05:29:39;;;;;;;1.10;0.60;;;23.50;67.50;;;;;;5115177;28;20808;-84
2022/09/19 05:32:07;;;;;;;0.80;0.70;;;23.50;67.40;;;;;;5114858;28;20443;-85
2022/09/19 05:34:35;;;;;;;1.53;0.77;;;23.40;67.30;;;;;;5114808;28;20442;-83
2022/09/19 05:37:02;;;;;;;0.80;0.70;;;23.50;67.40;;;;;;5115078;28;20538;-83
2022/09/19 05:39:29;;;;;;;1.40;0.80;;;23.50;67.40;;;;;;5114871;28;20445;-83
2022/09/19 05:41:55;;;;;;;0.90;0.80;;;23.50;67.40;;;;;;5114965;28;20538;-84
2022/09/19 05:44:23;;;;;;;1.10;0.70;;;23.40;67.30;;;;;;5115033;28;20435;-83
2022/09/19 05:46:52;;;;;;;1.20;0.90;;;23.40;67.30;;;;;;5114910;28;20555;-85
2022/09/19 05:49:19;;;;;;;1.30;1.00;;;23.40;67.30;;;;;;5114656;28;20469;-83
2022/09/19 05:51:47;;;;;;;0.80;0.80;;;23.50;67.40;;;;;;5114446;28;20855;-83
2022/09/19 05:54:13;;;;;;;1.00;0.90;;;23.50;67.40;;;;;;5114544;28;20443;-83
2022/09/19 05:56:40;;;;;;;1.20;0.87;;;23.40;67.30;;;;;;5114525;28;20856;-83
2022/09/19 05:59:08;;;;;;;1.20;0.90;;;23.40;67.30;;;;;;5114276;28;20561;-84
2022/09/19 06:01:36;;;;;;;1.00;0.80;;;23.40;67.30;;;;;;5114877;28;20439;-83
2022/09/19 06:04:03;;;;;;;2.50;1.10;;;23.40;67.30;;;;;;5114563;28;20510;-83
2022/09/19 06:06:30;;;;;;;0.80;0.80;;;23.50;67.40;;;;;;5114287;28;20505;-84
2022/09/19 06:08:58;;;;;;;0.80;0.70;;;23.40;67.30;;;;;;5114385;28;20546;-84
2022/09/19 06:11:26;;;;;;;0.80;0.70;;;23.40;67.30;;;;;;5114191;28;20438;-84
2022/09/19 06:16:37;;;;;;;0.80;0.70;;;23.50;67.40;;;;;;5114539;28;20422;-83
2022/09/19 06:19:06;;;;;;;1.23;0.80;;;23.40;67.30;;;;;;5113924;28;20471;-83
2022/09/19 06:21:32;;;;;;;1.00;0.70;;;23.40;67.30;;;;;;5114348;28;20442;-84
2022/09/19 06:24:02;;;;;;;1.00;0.90;;;23.50;67.40;;;;;;5114180;28;20466;-84
2022/09/19 06:26:29;;;;;;;0.80;0.60;;;23.40;67.30;;;;;;5113957;28;20482;-83
2022/09/19 06:28:56;;;;;;;1.10;0.97;;;23.40;67.30;;;;;;5113821;28;20546;-83
2022/09/19 06:31:23;;;;;;;0.90;0.80;;;23.40;67.30;;;;;;5113960;28;20541;-83
2022/09/19 06:33:50;;;;;;;0.83;0.70;;;23.40;67.20;;;;;;5114310;28;20431;-83
2022/09/19 06:36:17;;;;;;;0.87;0.73;;;23.40;67.20;;;;;;5114217;28;20530;-83
2022/09/19 06:38:44;;;;;;;0.90;0.70;;;23.40;67.20;;;;;;5113979;28;20431;-83
2022/09/19 06:41:13;;;;;;;0.90;0.80;;;23.40;67.30;;;;;;5114327;28;20437;-83
2022/09/19 06:43:40;;;;;;;0.90;0.80;;;23.40;67.30;;;;;;5114083;28;20533;-83
2022/09/19 06:46:09;;;;;;;1.30;0.80;;;23.40;67.30;;;;;;5112938;28;20569;-83
2022/09/19 06:48:36;;;;;;;1.10;1.00;;;23.40;67.20;;;;;;5113955;28;20439;-82
2022/09/19 06:51:03;;;;;;;1.37;0.90;;;23.40;67.20;;;;;;5113894;28;20467;-83
2022/09/19 06:53:30;;;;;;;1.07;0.73;;;23.40;67.20;;;;;;5113836;28;20439;-83
2022/09/19 06:55:57;;;;;;;1.27;0.90;;;23.40;67.30;;;;;;5113816;28;20500;-83
2022/09/19 06:58:26;;;;;;;1.00;0.90;;;23.40;67.30;;;;;;5113578;28;20459;-83
2022/09/19 07:00:53;;;;;;;0.93;0.83;;;23.40;67.20;;;;;;5113830;28;20855;-83
2022/09/19 07:03:21;;;;;;;0.80;0.73;;;23.50;67.40;;;;;;5113853;28;20453;-82
2022/09/19 07:05:47;;;;;;;1.10;0.83;;;23.40;67.20;;;;;;5113566;28;20435;-83
2022/09/19 07:08:15;;;;;;;0.93;0.83;;;23.40;67.20;;;;;;5113694;28;20450;-83
2022/09/19 07:10:42;;;;;;;0.90;0.70;;;23.40;67.30;;;;;;5113676;28;20795;-84
2022/09/19 07:13:16;;;;;;;1.60;0.80;;;23.40;67.30;;;;;;5113827;28;20777;-83
2022/09/19 07:15:44;;;;;;;0.80;0.60;;;23.40;67.30;;;;;;5113625;28;20431;-82
2022/09/19 07:18:13;;;;;;;1.17;0.80;;;23.50;67.40;;;;;;5113349;28;20446;-83
2022/09/19 07:20:40;;;;;;;1.30;1.00;;;23.40;67.30;;;;;;5114088;28;20859;-85
2022/09/19 07:23:13;;;;;;;0.93;0.73;;;23.40;67.20;;;;;;5113437;28;20504;-84
2022/09/19 07:25:40;;;;;;;0.80;0.73;;;23.50;67.40;;;;;;5113497;28;20538;-83
2022/09/19 07:28:10;;;;;;;0.97;0.87;;;23.40;67.20;;;;;;5113369;28;20459;-83
2022/09/19 07:30:37;;;;;;;1.00;0.80;;;23.40;67.40;;;;;;5113523;28;20439;-83
2022/09/19 07:33:08;;;;;;;0.80;0.70;;;23.40;67.40;;;;;;5113420;28;20836;-83
2022/09/19 07:35:36;;;;;;;0.90;0.80;;;23.40;67.30;;;;;;5113420;28;20427;-83
2022/09/19 07:38:04;;;;;;;1.13;0.90;;;23.40;67.30;;;;;;5113446;28;20534;-83
2022/09/19 07:40:32;;;;;;;1.00;0.90;;;23.40;67.30;;;;;;5113417;28;20862;-83
2022/09/19 07:43:01;;;;;;;1.30;1.07;;;23.50;68.30;;;;;;5113701;28;20431;-83
2022/09/19 07:45:28;;;;;;;1.00;0.90;;;23.40;67.30;;;;;;5113521;28;20918;-83
2022/09/19 07:47:56;;;;;;;0.83;0.70;;;23.50;67.50;;;;;;5113254;28;20490;-83
2022/09/19 07:50:24;;;;;;;0.93;0.87;;;23.40;67.40;;;;;;5113056;28;20443;-83
2022/09/19 07:52:59;;;;;;;1.00;0.80;;;23.50;67.40;;;;;;5113267;28;20447;-83
2022/09/19 07:55:26;;;;;;;0.80;0.70;;;23.50;67.50;;;;;;5113592;28;20441;-83
2022/09/19 07:57:55;;;;;;;0.90;0.80;;;23.40;67.40;;;;;;5116954;28;20505;-83
2022/09/19 08:00:22;;;;;;;1.10;1.00;;;23.40;67.30;;;;;;5116990;28;20881;-83
2022/09/19 08:02:55;;;;;;;1.20;0.97;;;23.40;68.20;;;;;;5117227;28;20432;-83
2022/09/19 08:05:24;;;;;;;1.20;1.10;;;23.50;67.50;;;;;;5117042;28;20434;-83
2022/09/19 08:07:51;;;;;;;1.00;0.80;;;23.50;67.40;;;;;;5116695;28;20486;-83
2022/09/19 08:10:18;;;;;;;0.83;0.70;;;23.50;67.50;;;;;;5116846;28;20533;-83
2022/09/19 08:12:45;;;;;;;0.93;0.83;;;23.40;67.30;;;;;;5116656;28;20439;-85
2022/09/19 08:15:15;;;;;;;1.23;0.83;;;23.50;67.50;;;;;;5116800;28;20771;-82
2022/09/19 08:17:43;;;;;;;1.00;0.70;;;23.50;67.50;;;;;;5116323;28;20808;-82
2022/09/19 08:20:09;;;;;;;0.90;0.70;;;23.50;67.50;;;;;;5116377;28;20486;-83
2022/09/19 08:22:38;;;;;;;1.00;0.90;;;23.50;67.40;;;;;;5116380;28;20945;-83
2022/09/19 08:25:05;;;;;;;0.90;0.80;;;23.50;67.40;;;;;;5116217;28;20530;-83
2022/09/19 08:27:32;;;;;;;1.20;0.87;;;23.50;67.40;;;;;;5116066;28;20491;-83
2022/09/19 08:29:59;;;;;;;1.00;0.73;;;23.50;68.20;;;;;;5116339;28;20855;-83
2022/09/19 08:32:27;;;;;;;0.90;0.80;;;23.50;67.30;;;;;;5116293;28;20531;-83
2022/09/19 08:34:54;;;;;;;1.10;0.80;;;23.50;67.30;;;;;;5116298;28;20510;-84
2022/09/19 08:37:21;;;;;;;0.90;0.80;;;23.50;67.30;;;;;;5116322;28;20446;-84
2022/09/19 08:42:37;;;;;;;1.00;0.80;;;23.50;67.30;;;;;;5115083;28;20449;-83
2022/09/19 08:45:08;;;;;;;0.90;0.77;;;23.50;67.20;;;;;;5116051;28;20442;-83
2022/09/19 08:47:36;;;;;;;1.00;0.70;;;23.50;67.30;;;;;;5115714;28;20490;-83
2022/09/19 08:50:10;;;;;;;1.00;0.90;;;23.50;67.20;;;;;;5115694;28;20434;-82
2022/09/19 08:52:43;;;;;;;1.30;1.00;;;23.50;67.20;;;;;;5115876;28;20468;-83
2022/09/19 08:55:17;;;;;;;0.80;0.70;;;23.50;67.20;;;;;;5115988;28;20441;-83
2022/09/19 08:57:54;;;;;;;1.63;0.80;;;23.50;68.00;;;;;;5115617;28;20458;-83
2022/09/19 09:00:23;;;;;;;1.13;0.70;;;23.50;67.10;;;;;;5115794;28;20785;-83
2022/09/19 09:02:55;;;;;;;0.93;0.83;;;23.50;67.20;;;;;;5115857;28;20431;-83
2022/09/19 09:05:34;;;;;;;1.00;0.90;;;23.50;67.10;;;;;;5115681;28;20435;-83
2022/09/19 09:08:10;;;;;;;0.83;0.60;;;23.60;67.20;;;;;;5114798;28;20482;-83
2022/09/19 09:10:50;;;;;;;0.97;0.80;;;23.60;67.20;;;;;;5115331;28;20442;-83
2022/09/19 09:13:27;;;;;;;0.90;0.70;;;23.60;67.20;;;;;;5115446;28;20449;-83
2022/09/19 09:16:11;;;;;;;1.17;0.80;;;23.50;67.10;;;;;;5115329;28;20947;-83
2022/09/19 09:18:58;;;;;;;0.90;0.77;;;23.50;67.10;;;;;;5114832;28;20473;-84
2022/09/19 09:21:33;;;;;;;0.90;0.73;;;23.60;67.20;;;;;;5115030;28;20793;-83
2022/09/19 09:24:05;;;;;;;1.03;0.87;;;23.50;67.10;;;;;;5115364;28;20434;-83
2022/09/19 09:26:40;;;;;;;1.30;0.80;;;23.50;67.10;;;;;;5115042;28;20434;-82
2022/09/19 09:29:15;;;;;;;0.80;0.70;;;23.50;67.10;;;;;;5115110;28;20430;-83
2022/09/19 09:31:46;;;;;;;0.97;0.77;;;23.50;67.10;;;;;;5114973;28;20448;-83
2022/09/19 09:34:18;;;;;;;0.97;0.80;;;23.60;67.20;;;;;;5115089;28;20447;-83
2022/09/19 09:36:50;;;;;;;1.50;0.90;;;23.60;67.50;;;;;;5114975;28;20442;-83
2022/09/19 09:39:23;;;;;;;0.80;0.70;;;23.60;67.20;;;;;;5114879;28;20526;-84
2022/09/19 09:41:56;;;;;;;1.00;0.80;;;23.60;67.20;;;;;;5114881;28;20445;-85
2022/09/19 09:44:43;;;;;;;1.10;0.80;;;23.50;67.10;;;;;;5114827;28;20474;-85
2022/09/19 09:47:21;;;;;;;1.50;0.80;;;23.60;67.20;;;;;;5114601;28;20526;-85
2022/09/19 09:49:49;;;;;;;0.90;0.60;;;23.60;67.20;;;;;;5114892;28;20443;-83
2022/09/19 09:52:35;;;;;;;0.90;0.70;;;23.50;67.20;;;;;;5096748;28;20447;-83
2022/09/19 09:58:14;;;;;;;1.00;0.80;;;23.60;67.20;;;;;;5114814;28;20445;-83
2022/09/19 10:03:38;;;;;;;0.80;0.70;;;23.50;67.20;;;;;;5114872;28;20426;-82
2022/09/19 10:06:11;;;;;;;0.90;0.80;;;23.50;67.20;;;;;;5114660;28;20439;-85
2022/09/19 10:08:44;;;;;;;0.90;0.80;;;23.60;67.30;;;;;;5114208;28;20497;-83
2022/09/19 10:11:15;;;;;;;1.00;0.90;;;23.60;67.20;;;;;;5114074;28;20755;-83
2022/09/19 10:13:48;;;;;;;1.10;0.90;;;23.60;67.30;;;;;;5114496;28;20439;-83
2022/09/19 10:16:18;;;;;;;0.80;0.70;;;23.60;67.30;;;;;;5114129;28;20443;-83
2022/09/19 10:18:53;;;;;;;0.80;0.70;;;23.60;67.30;;;;;;5113914;28;20549;-83
2022/09/19 10:21:20;;;;;;;1.30;0.80;;;23.60;67.20;;;;;;5114206;28;20442;-83
2022/09/19 10:23:46;;;;;;;1.07;0.80;;;23.60;67.40;;;;;;5114034;28;21004;-85
2022/09/19 10:26:19;;;;;;;1.00;0.80;;;23.60;67.30;;;;;;5114267;28;20437;-83
2022/09/19 10:28:52;;;;;;;0.90;0.70;;;23.60;67.30;;;;;;5113779;28;20486;-85
2022/09/19 10:31:26;;;;;;;0.83;0.70;;;23.60;67.40;;;;;;5113825;28;21002;-85
2022/09/19 10:33:52;;;;;;;0.97;0.87;;;23.60;67.30;;;;;;5114349;28;20447;-83
2022/09/19 10:36:25;;;;;;;1.03;0.90;;;23.60;67.40;;;;;;5114021;28;20443;-83
2022/09/19 10:38:58;;;;;;;0.80;0.60;;;23.60;67.30;;;;;;5114005;28;20993;-85
2022/09/19 10:41:26;;;;;;;1.23;0.90;;;23.60;67.30;;;;;;5114079;28;20925;-83
2022/09/19 10:43:56;;;;;;;0.80;0.70;;;23.60;67.40;;;;;;5114093;28;20446;-83
2022/09/19 10:46:35;;;;;;;0.90;0.70;;;23.60;67.30;;;;;;5114160;28;20443;-83
2022/09/19 10:49:05;;;;;;;0.80;0.60;;;23.60;67.30;;;;;;5113748;28;20487;-83
2022/09/19 10:51:36;;;;;;;0.90;0.80;;;23.60;67.30;;;;;;5113892;28;20833;-83
2022/09/19 10:54:11;;;;;;;0.90;0.70;;;23.60;67.40;;;;;;5114019;28;20534;-83
2022/09/19 10:56:40;;;;;;;0.90;0.60;;;23.60;67.40;;;;;;5113703;28;20928;-83
2022/09/19 10:59:28;;;;;;;1.00;0.73;;;23.60;67.40;;;;;;5113800;28;20922;-83
2022/09/19 11:02:16;;;;;;;1.00;0.90;;;23.60;67.30;;;;;;5113999;28;20512;-83
2022/09/19 11:04:59;;;;;;;0.90;0.70;;;23.60;67.30;;;;;;5113698;28;20439;-83
2022/09/19 11:07:28;;;;;;;0.83;0.73;;;23.60;67.40;;;;;;5114063;28;20557;-83
2022/09/19 11:09:59;;;;;;;0.80;0.70;;;23.60;67.40;;;;;;5113748;28;20443;-85
2022/09/19 11:12:27;;;;;;;1.20;1.10;;;23.60;67.40;;;;;;5113646;28;20991;-84
2022/09/19 11:14:56;;;;;;;0.90;0.70;;;23.60;67.40;;;;;;5113681;28;20431;-85
2022/09/19 11:17:56;;;;;;;0.80;0.70;;;23.60;67.40;;;;;;5113730;28;20444;-83
2022/09/19 11:20:35;;;;;;;1.23;0.83;;;23.60;67.40;;;;;;5113443;28;20476;-83
2022/09/19 11:23:42;;;;;;;0.90;0.80;;;23.60;67.40;;;;;;5113993;28;20452;-83
2022/09/19 11:26:20;;;;;;;1.00;0.80;;;23.60;67.40;;;;;;5064034;28;20448;-83
2022/09/19 11:28:59;;;;;;;1.60;0.90;;;23.60;67.50;;;;;;5113148;28;20585;-83
2022/09/19 11:31:41;;;;;;;1.07;0.80;;;23.60;67.50;;;;;;5115142;28;20529;-83
2022/09/19 11:34:16;;;;;;;1.03;0.70;;;23.60;67.50;;;;;;5117405;28;20431;-83
2022/09/19 11:36:50;;;;;;;1.20;0.80;;;23.60;67.50;;;;;;5117125;28;20435;-83
2022/09/19 11:39:22;;;;;;;0.80;0.70;;;23.60;67.50;;;;;;5117386;28;20438;-83
2022/09/19 11:42:02;;;;;;;1.00;0.80;;;23.50;67.40;;;;;;5117387;28;20853;-83
2022/09/19 11:44:43;;;;;;;0.83;0.70;;;23.60;67.60;;;;;;5117162;28;20441;-83
2022/09/19 11:47:25;;;;;;;1.20;0.80;;;23.60;67.50;;;;;;5117320;28;20458;-83
2022/09/19 11:50:20;;;;;;;1.10;0.93;;;23.60;67.40;;;;;;5117240;28;20431;-83
2022/09/19 11:53:01;;;;;;;0.90;0.70;;;23.60;68.20;;;;;;5116891;28;20443;-83
2022/09/19 11:55:37;;;;;;;1.10;0.80;;;23.60;67.50;;;;;;5117016;28;20466;-83
2022/09/19 11:58:14;;;;;;;0.80;0.70;;;23.60;67.50;;;;;;5116848;28;20462;-83
2022/09/19 12:00:53;;;;;;;0.80;0.67;;;23.60;67.50;;;;;;5117130;28;20441;-83
2022/09/19 12:03:31;;;;;;;1.13;0.80;;;23.60;67.50;;;;;;5117291;28;20430;-83
2022/09/19 12:06:08;;;;;;;0.93;0.80;;;23.60;67.50;;;;;;5117001;28;20877;-83
2022/09/19 12:08:52;;;;;;;0.87;0.70;;;23.60;67.50;;;;;;5116655;28;20569;-84
2022/09/19 12:11:26;;;;;;;1.23;0.80;;;23.60;67.50;;;;;;5116602;28;20454;-83
2022/09/19 12:13:57;;;;;;;0.90;0.77;;;23.60;67.50;;;;;;5116894;28;20778;-83
2022/09/19 12:16:29;;;;;;;0.93;0.67;;;23.60;67.50;;;;;;5116772;28;20530;-85
2022/09/19 12:19:02;;;;;;;0.87;0.73;;;23.60;67.50;;;;;;5116689;28;20554;-83
2022/09/19 12:21:36;;;;;;;1.30;0.83;;;23.60;67.50;;;;;;5116453;28;20792;-83
2022/09/19 12:26:57;;;;;;;1.00;0.80;;;23.60;67.50;;;;;;5116638;28;20438;-83
2022/09/19 12:29:34;;;;;;;0.83;0.60;;;23.60;67.60;;;;;;5116310;28;20980;-83
2022/09/19 12:32:06;;;;;;;1.10;0.90;;;23.60;67.50;;;;;;5116197;28;20933;-83
2022/09/19 12:34:39;;;;;;;1.00;0.80;;;23.60;67.50;;;;;;5116455;28;20496;-83
2022/09/19 12:37:13;;;;;;;1.03;0.80;;;23.60;67.50;;;;;;5116082;28;20446;-83
2022/09/19 12:39:46;;;;;;;1.10;0.97;;;23.60;67.50;;;;;;5116204;28;20441;-84
2022/09/19 12:42:22;;;;;;;1.37;0.60;;;23.60;67.50;;;;;;5115621;28;20455;-85
2022/09/19 12:44:59;;;;;;;1.00;0.80;;;23.60;67.50;;;;;;5116110;28;20435;-83
2022/09/19 12:47:38;;;;;;;0.87;0.73;;;23.60;67.50;;;;;;5116371;28;20542;-83
2022/09/19 12:50:19;;;;;;;0.90;0.80;;;23.60;67.50;;;;;;5116022;28;20434;-83
2022/09/19 12:52:57;;;;;;;1.00;0.90;;;23.60;67.50;;;;;;5116074;28;20921;-85
2022/09/19 12:55:32;;;;;;;1.00;0.70;;;23.60;67.50;;;;;;5115705;28;20445;-86
2022/09/19 12:58:06;;;;;;;0.90;0.70;;;23.60;67.60;;;;;;5115592;28;20462;-83
2022/09/19 13:00:39;;;;;;;0.90;0.80;;;23.60;67.50;;;;;;5115897;28;20441;-83
2022/09/19 13:03:13;;;;;;;1.10;0.70;;;23.60;67.50;;;;;;5115764;28;20445;-84
2022/09/19 13:05:46;;;;;;;1.33;0.70;;;23.60;67.50;;;;;;5115676;28;20912;-83
2022/09/19 13:08:20;;;;;;;0.87;0.70;;;23.60;67.50;;;;;;5115612;28;20488;-85
2022/09/19 13:10:51;;;;;;;0.80;0.70;;;23.60;67.50;;;;;;5115423;28;20437;-83
2022/09/19 13:13:25;;;;;;;1.00;0.80;;;23.60;67.50;;;;;;5115355;28;20637;-84
2022/09/19 13:15:54;;;;;;;0.90;0.70;;;23.60;67.50;;;;;;5115266;28;20820;-85
2022/09/19 13:24:01;;;;;;;0.80;0.60;;;23.60;67.50;;;;;;5115625;28;20889;-83
2022/09/19 13:26:34;;;;;;;0.77;0.60;;;23.60;67.60;;;;;;5114964;28;20473;-84
2022/09/19 13:29:03;;;;;;;0.83;0.70;;;23.60;67.50;;;;;;5115232;28;20487;-83
2022/09/19 13:31:39;;;;;;;0.90;0.70;;;23.60;67.50;;;;;;5115331;28;20440;-83
2022/09/19 13:34:39;;;;;;;0.80;0.60;;;23.60;67.50;;;;;;5115371;28;20438;-85
2022/09/19 13:37:39;;;;;;;1.00;0.73;;;23.70;67.50;;;;;;5114929;28;20961;-85